createdAt,value
2019-01-15T00:01:45.395Z,3.02
2019-01-15T00:04:14.813Z,3.10
2019-01-15T00:06:44.157Z,3.05
2019-01-15T00:09:13.369Z,2.52
2019-01-15T00:11:42.773Z,2.50
2019-01-15T00:14:12.165Z,3.00
2019-01-15T00:16:41.426Z,3.40
2019-01-15T00:19:10.871Z,3.22
2019-01-15T00:21:40.094Z,2.70
2019-01-15T00:24:09.384Z,2.67
2019-01-15T00:26:39.955Z,2.55
2019-01-15T00:29:09.321Z,2.72
2019-01-15T00:31:38.579Z,2.95
2019-01-15T00:34:07.949Z,2.90
2019-01-15T00:36:37.427Z,2.90
2019-01-15T00:39:08.632Z,2.70
2019-01-15T00:41:38.059Z,3.02
2019-01-15T00:44:07.539Z,3.08
2019-01-15T00:46:36.943Z,2.80
2019-01-15T00:49:06.385Z,3.05
2019-01-15T00:51:35.857Z,3.22
2019-01-15T00:54:05.660Z,3.05
2019-01-15T00:56:35.253Z,3.50
2019-01-15T00:59:06.920Z,3.83
2019-01-15T01:01:36.357Z,3.12
2019-01-15T01:04:06.081Z,3.37
2019-01-15T01:06:35.475Z,3.77
2019-01-15T01:09:11.159Z,3.27
2019-01-15T01:11:40.597Z,3.33
2019-01-15T01:14:10.118Z,4.08
2019-01-15T01:16:39.511Z,4.20
2019-01-15T01:19:08.938Z,3.50
2019-01-15T01:21:38.372Z,3.60
2019-01-15T01:24:07.718Z,4.03
2019-01-15T01:26:37.027Z,3.92
2019-01-15T01:29:06.485Z,3.83
2019-01-15T01:31:35.881Z,3.60
2019-01-15T01:34:05.285Z,3.50
2019-01-15T01:36:34.737Z,3.72
2019-01-15T01:39:06.927Z,3.87
2019-01-15T01:41:36.228Z,3.30
2019-01-15T01:44:05.698Z,4.05
2019-01-15T01:46:35.097Z,3.72
2019-01-15T01:49:04.435Z,3.30
2019-01-15T01:51:34.026Z,3.15
2019-01-15T01:54:03.416Z,3.40
2019-01-15T01:56:32.832Z,3.02
2019-01-15T01:59:02.321Z,3.47
2019-01-15T02:01:31.963Z,3.05
2019-01-15T02:04:01.673Z,3.45
2019-01-15T02:06:31.253Z,3.45
2019-01-15T02:09:01.106Z,3.05
2019-01-15T02:11:30.713Z,3.17
2019-01-15T02:14:00.416Z,3.55
2019-01-15T02:16:29.855Z,3.37
2019-01-15T02:18:59.825Z,2.77
2019-01-15T02:21:29.495Z,3.08
2019-01-15T02:23:58.947Z,3.00
2019-01-15T02:50:34.687Z,2.85
2019-01-15T02:53:03.983Z,2.80
2019-01-15T02:55:33.328Z,2.80
2019-01-15T02:58:02.650Z,3.22
2019-01-15T03:00:32.110Z,3.05
2019-01-15T03:03:01.489Z,3.22
2019-01-15T03:05:30.845Z,2.92
2019-01-15T03:08:00.308Z,3.08
2019-01-15T03:10:29.801Z,3.37
2019-01-15T03:12:59.224Z,2.83
2019-01-15T03:15:28.683Z,3.30
2019-01-15T03:17:58.509Z,3.37
2019-01-15T03:20:27.917Z,3.17
2019-01-15T03:22:57.352Z,2.90
2019-01-15T03:25:26.756Z,3.60
2019-01-15T03:27:56.123Z,3.65
2019-01-15T03:30:25.850Z,3.75
2019-01-15T03:32:55.215Z,3.00
2019-01-15T03:35:24.105Z,3.60
2019-01-15T03:37:53.039Z,3.50
2019-01-15T03:40:23.045Z,3.47
2019-01-15T03:42:51.881Z,3.37
2019-01-15T03:45:20.905Z,3.10
2019-01-15T03:47:49.750Z,3.22
2019-01-15T03:50:19.514Z,3.10
2019-01-15T03:52:48.325Z,4.00
2019-01-15T03:55:17.576Z,3.00
2019-01-15T03:57:46.378Z,3.30
2019-01-15T04:00:16.362Z,3.67
2019-01-15T04:02:45.745Z,3.08
2019-01-15T04:05:15.730Z,3.77
2019-01-15T04:07:45.075Z,4.33
2019-01-15T04:10:14.313Z,4.00
2019-01-15T04:29:25.437Z,4.20
2019-01-15T04:31:54.957Z,4.65
2019-01-15T04:34:24.007Z,3.92
2019-01-15T04:36:52.897Z,4.80
2019-01-15T04:39:21.921Z,3.80
2019-01-15T04:42:04.587Z,3.80
2019-01-15T04:44:33.395Z,4.12
2019-01-15T04:47:02.373Z,4.28
2019-01-15T04:49:31.080Z,3.83
2019-01-15T04:51:59.844Z,3.92
2019-01-15T04:54:28.693Z,4.40
2019-01-15T04:57:03.770Z,3.77
2019-01-15T04:59:33.137Z,3.70
2019-01-15T05:02:02.093Z,4.30
2019-01-15T05:04:31.062Z,3.58
2019-01-15T05:06:59.911Z,3.00
2019-01-15T05:09:28.799Z,3.52
2019-01-15T05:11:57.578Z,3.60
2019-01-15T05:14:26.442Z,3.62
2019-01-15T05:16:55.241Z,3.37
2019-01-15T05:19:24.613Z,2.98
2019-01-15T05:21:53.506Z,3.08
2019-01-15T05:24:22.309Z,2.70
2019-01-15T05:26:51.186Z,2.30
2019-01-15T05:29:20.598Z,3.00
2019-01-15T05:31:50.139Z,3.27
2019-01-15T05:34:19.680Z,2.50
2019-01-15T05:36:49.231Z,2.15
2019-01-15T05:39:18.825Z,3.05
2019-01-15T05:41:48.194Z,2.55
2019-01-15T05:44:17.529Z,2.30
2019-01-15T05:46:46.917Z,2.17
2019-01-15T05:49:18.159Z,2.30
2019-01-15T05:51:47.618Z,2.35
2019-01-15T05:54:17.045Z,2.40
2019-01-15T05:56:46.425Z,2.33
2019-01-15T05:59:15.783Z,2.42
2019-01-15T06:01:45.202Z,2.35
2019-01-15T06:04:14.673Z,2.42
2019-01-15T06:06:44.089Z,2.20
2019-01-15T06:09:13.526Z,2.15
2019-01-15T06:11:43.000Z,3.30
2019-01-15T06:14:12.417Z,2.20
2019-01-15T06:19:46.585Z,2.70
2019-01-15T06:22:16.136Z,2.45
2019-01-15T06:25:31.895Z,2.40
2019-01-15T06:28:01.285Z,2.50
2019-01-15T06:30:30.627Z,2.55
2019-01-15T06:33:00.079Z,2.85
2019-01-15T06:35:29.621Z,3.00
2019-01-15T06:38:17.119Z,2.77
2019-01-15T06:40:49.601Z,2.40
2019-01-15T06:43:19.012Z,2.83
2019-01-15T06:45:49.432Z,2.50
2019-01-15T06:48:18.843Z,2.70
2019-01-15T06:50:48.160Z,2.80
2019-01-15T06:53:23.626Z,2.60
2019-01-15T06:55:52.977Z,2.40
2019-01-15T06:58:22.505Z,2.83
2019-01-15T07:00:51.906Z,2.33
2019-01-15T07:03:25.166Z,2.45
2019-01-15T07:05:54.808Z,2.58
2019-01-15T07:08:25.473Z,2.72
2019-01-15T07:10:54.831Z,2.58
2019-01-15T07:13:25.941Z,2.60
2019-01-15T07:15:56.145Z,2.75
2019-01-15T07:18:25.407Z,3.00
2019-01-15T07:20:54.746Z,2.60
2019-01-15T07:23:24.085Z,2.72
2019-01-15T07:25:53.555Z,2.80
2019-01-15T07:28:22.854Z,2.90
2019-01-15T07:30:54.603Z,2.60
2019-01-15T07:33:28.717Z,2.67
2019-01-15T07:35:58.135Z,3.70
2019-01-15T07:38:27.472Z,3.15
2019-01-15T07:40:56.793Z,2.80
2019-01-15T07:43:26.085Z,2.95
2019-01-15T07:45:55.475Z,2.75
2019-01-15T07:48:24.871Z,2.85
2019-01-15T07:50:54.245Z,3.02
2019-01-15T07:53:23.667Z,3.30
2019-01-15T07:55:53.106Z,2.90
2019-01-15T07:58:22.382Z,2.97
2019-01-15T08:00:51.782Z,2.98
2019-01-15T08:03:21.110Z,3.07
2019-01-15T08:05:50.664Z,3.50
2019-01-15T08:08:19.878Z,2.67
2019-01-15T08:10:49.263Z,2.83
2019-01-15T08:13:18.651Z,2.67
2019-01-15T08:15:48.028Z,2.87
2019-01-15T08:18:17.398Z,2.60
2019-01-15T08:20:46.692Z,3.20
2019-01-15T08:23:16.020Z,3.40
2019-01-15T08:25:45.401Z,3.33
2019-01-15T08:28:14.765Z,2.77
2019-01-15T08:30:44.061Z,2.30
2019-01-15T08:33:12.736Z,2.77
2019-01-15T08:35:42.070Z,2.70
2019-01-15T08:38:11.475Z,2.63
2019-01-15T08:40:40.811Z,2.20
2019-01-15T08:43:10.071Z,2.53
2019-01-15T08:45:39.434Z,2.73
2019-01-15T08:48:25.961Z,2.50
2019-01-15T08:50:55.457Z,2.53
2019-01-15T08:53:25.513Z,2.57
2019-01-15T08:56:00.074Z,2.93
2019-01-15T08:58:29.507Z,2.30
2019-01-15T09:00:58.842Z,2.17
2019-01-15T09:03:28.175Z,2.77
2019-01-15T09:05:57.521Z,2.27
2019-01-15T09:08:26.589Z,2.77
2019-01-15T09:10:55.325Z,2.40
2019-01-15T09:13:24.077Z,2.53
2019-01-15T09:15:52.769Z,2.20
2019-01-15T09:18:21.487Z,2.63
2019-01-15T09:20:50.254Z,2.73
2019-01-15T09:23:19.025Z,2.33
2019-01-15T09:25:48.190Z,2.43
2019-01-15T09:28:17.065Z,2.37
2019-01-15T09:30:46.033Z,2.43
2019-01-15T09:33:14.861Z,2.47
2019-01-15T09:35:43.677Z,2.37
2019-01-15T09:38:12.751Z,2.13
2019-01-15T09:40:47.459Z,2.60
2019-01-15T09:43:16.218Z,2.53
2019-01-15T09:45:44.883Z,2.47
2019-01-15T09:48:34.626Z,2.70
2019-01-15T09:51:03.355Z,2.77
2019-01-15T09:53:32.097Z,2.63
2019-01-15T09:56:03.950Z,2.20
2019-01-15T09:58:32.659Z,2.50
2019-01-15T10:01:01.253Z,2.40
2019-01-15T10:03:29.990Z,2.53
2019-01-15T10:05:58.709Z,2.50
2019-01-15T10:08:27.549Z,2.00
2019-01-15T10:10:56.271Z,2.40
2019-01-15T10:13:25.101Z,2.53
2019-01-15T10:15:53.795Z,2.87
2019-01-15T10:18:37.798Z,2.57
2019-01-15T10:21:06.629Z,2.67
2019-01-15T10:23:35.404Z,2.20
2019-01-15T10:26:04.073Z,2.47
2019-01-15T10:28:32.852Z,2.47
2019-01-15T10:31:20.720Z,2.70
2019-01-15T10:33:51.880Z,2.80
2019-01-15T10:36:19.863Z,2.30
2019-01-15T10:38:48.663Z,2.43
2019-01-15T10:41:17.379Z,2.33
2019-01-15T10:43:46.108Z,2.57
2019-01-15T10:46:21.280Z,2.10
2019-01-15T10:48:48.381Z,2.70
2019-01-15T10:51:17.151Z,2.30
2019-01-15T10:53:45.883Z,2.00
2019-01-15T10:56:14.623Z,2.33
2019-01-15T10:58:43.341Z,2.40
2019-01-15T11:01:12.110Z,2.40
2019-01-15T11:03:40.907Z,2.13
2019-01-15T11:06:09.764Z,2.40
2019-01-15T11:08:38.618Z,2.47
2019-01-15T11:11:07.874Z,2.70
2019-01-15T11:13:36.640Z,2.73
2019-01-15T11:16:05.365Z,2.77
2019-01-15T11:18:34.083Z,3.00
2019-01-15T11:21:02.882Z,1.90
2019-01-15T11:23:34.950Z,2.90
2019-01-15T11:26:03.798Z,2.00
2019-01-15T11:28:32.554Z,1.90
2019-01-15T11:31:01.347Z,1.83
2019-01-15T11:33:32.407Z,1.70
2019-01-15T11:36:01.219Z,1.73
2019-01-15T11:38:29.894Z,2.33
2019-01-15T11:40:58.578Z,1.90
2019-01-15T11:43:27.279Z,2.13
2019-01-15T11:45:56.024Z,1.70
2019-01-15T11:48:24.770Z,1.60
2019-01-15T11:50:53.504Z,2.10
2019-01-15T11:53:22.465Z,1.90
2019-01-15T11:55:51.265Z,1.70
2019-01-15T11:58:20.023Z,1.90
2019-01-15T12:01:07.662Z,1.80
2019-01-15T12:03:55.687Z,1.97
2019-01-15T12:06:49.916Z,1.83
2019-01-15T12:09:46.833Z,1.80
2019-01-15T12:12:31.578Z,1.90
2019-01-15T12:15:31.590Z,1.63
2019-01-15T12:18:17.781Z,1.83
2019-01-15T12:21:03.192Z,2.03
2019-01-15T12:23:53.687Z,2.20
2019-01-15T12:26:40.383Z,1.90
2019-01-15T12:29:30.930Z,2.03
2019-01-15T12:32:17.641Z,1.70
2019-01-15T12:35:06.209Z,1.73
2019-01-15T12:38:00.141Z,2.10
2019-01-15T12:40:51.201Z,1.77
2019-01-15T12:43:29.649Z,1.80
2019-01-15T12:46:20.515Z,1.90
2019-01-15T12:49:11.467Z,2.00
2019-01-15T12:51:59.330Z,1.80
2019-01-15T12:54:53.265Z,2.20
2019-01-15T12:57:57.287Z,2.13
2019-01-15T13:00:48.190Z,1.93
2019-01-15T13:03:41.705Z,2.23
2019-01-15T13:06:34.157Z,2.20
2019-01-15T13:09:25.429Z,2.33
2019-01-15T13:12:13.298Z,2.47
2019-01-15T13:15:06.891Z,2.37
2019-01-15T13:17:53.157Z,2.60
2019-01-15T13:20:43.804Z,2.30
2019-01-15T13:23:30.771Z,2.30
2019-01-15T13:26:17.441Z,2.20
2019-01-15T13:29:04.344Z,2.07
2019-01-15T13:31:55.116Z,2.63
2019-01-15T13:34:58.033Z,1.97
2019-01-15T13:37:45.820Z,2.37
2019-01-15T13:40:39.431Z,2.63
2019-01-15T13:43:42.445Z,2.10
2019-01-15T13:46:42.413Z,2.50
2019-01-15T13:49:33.242Z,2.43
2019-01-15T13:52:27.339Z,2.50
2019-01-15T13:55:33.650Z,2.20
2019-01-15T13:58:24.309Z,2.20
2019-01-15T14:01:03.428Z,2.37
2019-01-15T14:03:54.443Z,2.57
2019-01-15T14:06:41.062Z,2.43
2019-01-15T14:09:29.296Z,2.10
2019-01-15T14:12:17.239Z,2.30
2019-01-15T14:15:04.978Z,2.30
2019-01-15T14:18:00.473Z,2.63
2019-01-15T14:20:48.247Z,2.80
2019-01-15T14:23:38.865Z,2.70
2019-01-15T14:26:29.425Z,2.90
2019-01-15T14:29:08.783Z,2.77
2019-01-15T14:32:21.614Z,2.73
2019-01-15T14:35:08.358Z,2.47
2019-01-15T14:37:56.165Z,2.80
2019-01-15T14:40:47.119Z,2.33
2019-01-15T14:43:41.105Z,2.73
2019-01-15T14:46:42.355Z,2.47
2019-01-15T14:49:33.102Z,2.30
2019-01-15T14:52:19.818Z,2.83
2019-01-15T14:55:16.671Z,2.40
2019-01-15T14:57:57.054Z,2.63
2019-01-15T15:00:47.975Z,2.37
2019-01-15T15:03:28.047Z,2.60
2019-01-15T15:06:24.821Z,2.50
2019-01-15T15:09:11.582Z,2.40
2019-01-15T15:12:08.917Z,2.33
2019-01-15T15:14:48.117Z,2.50
2019-01-15T15:17:37.819Z,3.23
2019-01-15T15:23:19.306Z,2.70
2019-01-15T15:26:14.928Z,3.13
2019-01-15T15:29:02.932Z,2.93
2019-01-15T15:31:50.702Z,3.17
2019-01-15T15:34:50.888Z,3.20
2019-01-15T15:37:29.696Z,3.47
2019-01-15T15:40:21.363Z,3.10
2019-01-15T15:43:13.611Z,3.43
2019-01-15T15:46:11.289Z,3.30
2019-01-15T15:49:05.582Z,3.23
2019-01-15T15:51:52.071Z,3.27
2019-01-15T15:54:54.998Z,2.90
2019-01-15T15:57:48.582Z,2.60
2019-01-15T16:00:36.337Z,3.03
2019-01-15T16:03:23.799Z,3.17
2019-01-15T16:06:10.301Z,3.10
2019-01-15T16:09:13.331Z,2.93
2019-01-15T16:12:05.899Z,3.27
2019-01-15T16:15:05.866Z,3.67
2019-01-15T16:17:59.729Z,3.07
2019-01-15T16:20:46.216Z,3.43
2019-01-15T16:23:46.148Z,3.20
2019-01-15T16:26:32.913Z,3.10
2019-01-15T16:29:26.906Z,3.30
2019-01-15T16:35:03.431Z,3.77
2019-01-15T16:37:44.843Z,4.33
2019-01-15T16:40:41.609Z,3.70
2019-01-15T16:43:25.336Z,3.53
2019-01-15T16:46:16.257Z,4.30
2019-01-15T16:48:59.486Z,4.40
2019-01-15T16:51:47.615Z,4.10
2019-01-15T16:54:32.689Z,3.80
2019-01-15T16:57:19.913Z,3.87
2019-01-15T17:00:07.645Z,3.80
2019-01-15T17:03:07.743Z,3.83
2019-01-15T17:05:55.472Z,3.50
2019-01-15T17:08:41.033Z,3.90
2019-01-15T17:11:34.595Z,3.50
2019-01-15T17:14:27.036Z,3.97
2019-01-15T17:17:14.782Z,3.20
2019-01-15T17:20:01.439Z,4.20
2019-01-15T17:22:48.071Z,3.50
2019-01-15T17:25:34.778Z,4.00
2019-01-15T17:28:13.994Z,4.00
2019-01-15T17:30:55.671Z,3.70
2019-01-15T17:33:39.707Z,3.60
2019-01-15T17:39:34.310Z,3.37
2019-01-15T17:42:21.545Z,3.90
2019-01-15T17:45:20.389Z,4.30
2019-01-15T17:48:20.116Z,3.93
2019-01-15T17:51:08.057Z,3.77
2019-01-15T17:53:58.208Z,4.30
2019-01-15T17:57:04.822Z,4.10
2019-01-15T17:59:55.574Z,3.60
2019-01-15T18:02:52.665Z,4.00
2019-01-15T18:05:53.085Z,4.10
2019-01-15T18:08:40.193Z,3.53
2019-01-15T18:11:34.083Z,3.87
2019-01-15T18:14:26.956Z,3.20
2019-01-15T18:17:26.540Z,4.20
2019-01-15T18:23:09.665Z,3.50
2019-01-15T18:26:09.480Z,3.30
2019-01-15T18:32:17.646Z,3.80
2019-01-15T18:35:05.423Z,3.60
2019-01-15T18:37:53.249Z,4.07
2019-01-15T18:40:39.966Z,3.70
2019-01-15T18:43:26.693Z,3.53
2019-01-15T18:49:22.366Z,4.10
2019-01-15T18:52:13.376Z,3.50
2019-01-15T18:54:52.768Z,3.37
2019-01-15T18:57:32.899Z,3.73
2019-01-15T19:00:23.942Z,4.07
2019-01-15T19:03:14.413Z,3.73
2019-01-15T19:06:02.259Z,3.53
2019-01-15T19:09:05.204Z,3.10
2019-01-15T19:12:01.473Z,4.00
2019-01-15T19:14:48.034Z,3.60
2019-01-15T19:17:34.721Z,4.10
2019-01-15T19:20:25.925Z,4.00
2019-01-15T19:23:19.609Z,4.10
2019-01-15T19:25:59.752Z,4.20
2019-01-15T19:29:05.877Z,3.90
2019-01-15T19:34:45.015Z,3.80
2019-01-15T19:37:32.091Z,3.70
2019-01-15T19:40:32.062Z,4.00
2019-01-15T19:43:38.269Z,3.70
2019-01-15T19:46:29.989Z,3.73
2019-01-15T19:49:06.342Z,3.37
2019-01-15T19:51:56.928Z,3.63
2019-01-15T19:54:54.995Z,3.83
2019-01-15T19:57:43.972Z,3.57
2019-01-15T20:00:32.331Z,3.90
2019-01-15T20:06:25.294Z,3.27
2019-01-15T20:09:13.065Z,3.10
2019-01-15T20:12:00.864Z,4.50
2019-01-15T20:17:42.189Z,3.10
2019-01-15T20:26:46.613Z,3.57
2019-01-15T20:29:36.653Z,3.50
2019-01-15T20:32:24.411Z,3.43
2019-01-15T20:35:12.001Z,3.40
2019-01-15T20:37:50.933Z,3.97
2019-01-15T20:40:37.416Z,3.53
2019-01-15T20:43:31.314Z,3.57
2019-01-15T20:46:19.119Z,3.83
2019-01-15T20:51:56.410Z,3.63
2019-01-15T20:54:41.095Z,4.00
2019-01-15T20:57:34.775Z,3.60
2019-01-15T21:03:44.617Z,3.80
2019-01-15T21:06:35.529Z,3.50
2019-01-15T21:09:32.225Z,3.83
2019-01-15T21:12:30.540Z,3.43
2019-01-15T21:15:27.880Z,4.10
2019-01-15T21:18:09.819Z,3.60
2019-01-15T21:20:52.823Z,3.17
2019-01-15T21:23:46.822Z,3.60
2019-01-15T21:26:24.543Z,3.73
2019-01-15T21:29:30.771Z,3.50
2019-01-15T21:32:24.587Z,3.40
2019-01-15T21:35:11.181Z,3.37
2019-01-15T21:37:55.601Z,3.70
2019-01-15T21:40:43.377Z,3.83
2019-01-15T21:43:30.134Z,3.60
2019-01-15T21:46:15.759Z,4.30
2019-01-15T21:49:10.927Z,3.30
2019-01-15T21:51:54.300Z,4.20
2019-01-15T21:54:45.122Z,4.00
2019-01-15T21:57:51.466Z,4.10
2019-01-15T22:00:34.420Z,3.37
2019-01-15T22:03:33.674Z,3.83
2019-01-15T22:06:21.508Z,4.17
2019-01-15T22:09:18.285Z,4.30
2019-01-15T22:17:54.710Z,5.00
2019-01-15T22:21:02.632Z,4.30
2019-01-15T22:23:50.202Z,3.67
2019-01-15T22:26:50.333Z,4.33
2019-01-15T22:32:33.058Z,4.00
2019-01-15T22:35:20.810Z,4.13
2019-01-15T22:38:12.882Z,3.97
2019-01-15T22:41:16.218Z,4.00
2019-01-15T22:44:02.781Z,3.80
2019-01-15T22:46:50.558Z,4.10
2019-01-15T22:49:37.779Z,3.47
2019-01-15T22:52:17.833Z,3.70
2019-01-15T22:55:05.448Z,3.90
2019-01-15T22:57:56.012Z,4.17
2019-01-15T23:01:04.621Z,3.90
2019-01-15T23:03:51.878Z,4.17
2019-01-15T23:09:30.564Z,3.37
2019-01-15T23:15:17.989Z,3.87
2019-01-15T23:18:17.493Z,3.73
2019-01-15T23:24:00.400Z,3.73
2019-01-15T23:26:54.320Z,3.17
2019-01-15T23:29:48.125Z,3.37
2019-01-15T23:32:44.134Z,3.60
2019-01-15T23:35:47.016Z,3.07
2019-01-15T23:38:36.725Z,3.50
2019-01-15T23:41:17.132Z,4.00
2019-01-15T23:44:02.430Z,3.73
2019-01-15T23:46:39.687Z,3.73
2019-01-15T23:49:29.720Z,3.30
2019-01-15T23:55:10.286Z,3.60
2019-01-15T23:57:53.126Z,3.00
